Time;durP1;ratioP1;P1;durP2;ratioP2;P2;SDS_P1;SDS_P2;PMS_P1;PMS_P2;Temp;Humidity;BMP_temperature;BMP_pressure;BME280_temperature;BME280_humidity;BME280_pressure;Samples;Min_cycle;Max_cycle;Signal;HPM_P1;HPM_P2
2022/10/30 00:01:21;;;;;;;15.50;6.40;;;;;;;11.51;70.49;99449.95;103088;1298;112907;-71
2022/10/30 00:03:49;;;;;;;15.10;6.10;;;;;;;11.49;70.74;99445.59;102966;1301;99322;-71
2022/10/30 00:06:19;;;;;;;14.70;6.10;;;;;;;11.49;70.68;99442.60;103092;1302;107497;-70
2022/10/30 00:08:47;;;;;;;14.60;6.40;;;;;;;11.49;70.75;99445.81;102989;1290;99211;-71
2022/10/30 00:11:17;;;;;;;15.00;6.80;;;;;;;11.48;70.70;99449.41;103064;1303;96511;-71
2022/10/30 00:13:45;;;;;;;15.60;5.90;;;;;;;11.47;70.76;99445.92;103046;1303;111493;-70
2022/10/30 00:16:13;;;;;;;13.90;5.80;;;;;;;11.46;70.82;99445.83;103062;1303;99207;-70
2022/10/30 00:18:42;;;;;;;16.10;5.70;;;;;;;11.45;70.87;99445.86;103108;1303;107342;-72
2022/10/30 00:21:15;;;;;;;14.00;6.00;;;;;;;11.46;70.96;99449.05;103174;1296;99241;-72
2022/10/30 00:23:49;;;;;;;11.20;5.60;;;;;;;11.45;70.88;99447.31;103176;1304;98360;-72
2022/10/30 00:26:20;;;;;;;15.30;6.30;;;;;;;11.45;70.96;99449.45;103141;1303;112110;-73
2022/10/30 00:28:54;;;;;;;13.70;5.90;;;;;;;11.45;70.97;99450.83;103181;1301;99345;-73
2022/10/30 00:31:23;;;;;;;12.30;6.10;;;;;;;11.46;71.06;99447.59;103151;1303;106539;-72
2022/10/30 00:33:52;;;;;;;14.20;5.60;;;;;;;11.46;71.07;99448.30;103113;1297;99238;-71
2022/10/30 00:36:22;;;;;;;15.00;5.70;;;;;;;11.46;71.09;99446.70;103170;1304;99226;-73
2022/10/30 00:38:50;;;;;;;14.40;5.80;;;;;;;11.47;71.05;99450.36;103134;1296;112448;-72
2022/10/30 00:41:21;;;;;;;15.40;5.90;;;;;;;11.46;71.08;99443.12;103145;1296;99402;-71
2022/10/30 00:43:50;;;;;;;13.90;6.00;;;;;;;11.47;71.09;99448.55;103158;1298;106481;-70
2022/10/30 00:46:36;;;;;;;12.90;5.90;;;;;;;11.48;71.15;99451.70;103158;1295;99995;-70
2022/10/30 00:49:15;;;;;;;12.90;5.40;;;;;;;11.50;71.18;99456.95;103190;1297;99351;-71
2022/10/30 00:51:54;;;;;;;13.40;5.80;;;;;;;11.52;71.27;99463.16;103162;1304;112518;-71
2022/10/30 00:54:23;;;;;;;15.10;6.10;;;;;;;11.54;71.26;99466.92;103091;1301;99339;-71
2022/10/30 00:56:53;;;;;;;17.40;6.10;;;;;;;11.57;71.39;99466.57;103067;1296;107615;-71
2022/10/30 00:59:26;;;;;;;14.30;5.70;;;;;;;11.59;71.38;99463.59;103085;1296;99331;-71
2022/10/30 01:01:55;;;;;;;14.00;5.70;;;;;;;11.61;71.37;99465.73;103061;1296;97511;-72
2022/10/30 01:04:25;;;;;;;15.00;5.60;;;;;;;11.62;71.31;99465.95;103062;1297;111731;-72
2022/10/30 01:07:04;;;;;;;14.30;6.00;;;;;;;11.65;71.36;99462.94;103126;1298;99261;-72
2022/10/30 01:09:34;;;;;;;11.70;5.40;;;;;;;11.67;71.36;99460.89;103145;1300;107503;-72
2022/10/30 01:12:01;;;;;;;12.80;5.40;;;;;;;11.68;71.44;99458.66;103122;1298;96483;-70
2022/10/30 01:14:31;;;;;;;11.80;5.30;;;;;;;11.70;71.47;99455.53;103143;1295;99715;-71
2022/10/30 01:17:18;;;;;;;13.30;5.80;;;;;;;11.71;71.46;99453.50;103145;1304;112373;-71
2022/10/30 01:20:42;;;;;;;13.90;5.40;;;;;;;11.72;71.39;99456.95;103164;1290;97930;-71
2022/10/30 01:23:47;;;;;;;12.50;5.90;;;;;;;11.72;71.57;99460.14;102573;1310;107523;-70
2022/10/30 01:26:56;;;;;;;12.70;5.10;;;;;;;11.74;71.54;99449.00;102487;1316;99148;-70
2022/10/30 01:29:50;;;;;;;17.10;7.20;;;;;;;11.75;71.66;99445.16;102788;1305;99348;-72
2022/10/30 01:32:41;;;;;;;16.30;6.80;;;;;;;11.77;71.67;99439.58;103126;1304;112572;-71
2022/10/30 01:35:23;;;;;;;14.70;6.80;;;;;;;11.77;71.59;99435.10;103174;1296;99333;-75
2022/10/30 01:38:16;;;;;;;15.40;6.10;;;;;;;11.78;71.71;99428.34;103088;1303;107226;-72
2022/10/30 01:40:44;;;;;;;18.60;6.40;;;;;;;11.78;71.69;99429.36;103087;1304;96517;-71
2022/10/30 01:43:12;;;;;;;17.40;6.30;;;;;;;11.78;71.62;99431.30;103117;1297;99653;-71
2022/10/30 01:46:07;;;;;;;16.80;6.20;;;;;;;11.79;71.59;99439.59;103222;1296;112134;-72
2022/10/30 01:48:46;;;;;;;15.70;6.00;;;;;;;11.80;71.80;99450.77;103196;1296;97613;-71
2022/10/30 01:51:38;;;;;;;14.80;6.30;;;;;;;11.80;71.77;99451.26;103150;1303;107503;-71
2022/10/30 01:54:25;;;;;;;12.40;5.50;;;;;;;11.80;71.72;99451.47;103168;1304;99316;-71
2022/10/30 01:57:19;;;;;;;14.40;5.90;;;;;;;11.79;71.75;99448.31;103063;1300;99225;-70
2022/10/30 02:00:07;;;;;;;12.50;5.50;;;;;;;11.79;71.82;99439.25;103012;1296;112523;-70
2022/10/30 02:02:36;;;;;;;14.10;5.80;;;;;;;11.80;71.91;99439.70;103066;1304;99300;-71
2022/10/30 02:05:08;;;;;;;12.20;5.40;;;;;;;11.80;71.85;99446.10;103000;1304;107153;-72
2022/10/30 02:07:36;;;;;;;16.40;5.50;;;;;;;11.81;71.94;99447.77;102892;1301;99352;-71
2022/10/30 02:10:04;;;;;;;11.90;4.90;;;;;;;11.83;71.88;99449.25;103081;1290;96676;-70
2022/10/30 02:12:33;;;;;;;12.50;5.30;;;;;;;11.83;71.90;99451.02;103025;1304;111491;-71
2022/10/30 02:15:02;;;;;;;11.60;5.30;;;;;;;11.85;71.99;99439.52;103032;1296;99319;-70
2022/10/30 02:17:30;;;;;;;11.70;4.90;;;;;;;11.86;72.09;99441.40;102992;1297;107504;-70
2022/10/30 02:19:58;;;;;;;13.90;5.10;;;;;;;11.88;72.07;99446.92;103096;1298;99365;-69
2022/10/30 02:22:27;;;;;;;13.50;5.70;;;;;;;11.90;72.05;99454.61;103184;1296;99243;-70
2022/10/30 02:24:56;;;;;;;10.40;4.90;;;;;;;11.91;72.14;99456.83;103067;1304;112506;-70
2022/10/30 02:27:23;;;;;;;10.40;5.00;;;;;;;11.91;72.11;99457.74;103087;1304;99243;-71
2022/10/30 02:29:51;;;;;;;12.60;5.70;;;;;;;11.91;72.12;99462.71;103026;1300;107466;-71
2022/10/30 02:32:19;;;;;;;13.80;5.30;;;;;;;11.90;72.13;99454.92;103103;1304;96637;-70
2022/10/30 02:34:46;;;;;;;11.70;5.10;;;;;;;11.91;72.24;99439.28;103057;1296;99229;-70
2022/10/30 02:37:14;;;;;;;11.80;5.10;;;;;;;11.92;72.29;99441.70;103037;1298;112534;-71
2022/10/30 02:39:42;;;;;;;14.60;5.80;;;;;;;11.92;72.29;99433.14;103053;1296;99247;-72
2022/10/30 02:42:10;;;;;;;14.40;5.90;;;;;;;11.92;72.26;99431.02;102951;1296;107447;-71
2022/10/30 02:44:39;;;;;;;9.90;5.00;;;;;;;11.91;72.37;99434.60;103094;1296;99207;-71
2022/10/30 02:47:08;;;;;;;14.50;6.20;;;;;;;11.90;72.39;99425.24;103089;1304;96877;-72
2022/10/30 02:49:36;;;;;;;12.80;5.50;;;;;;;11.89;72.31;99428.73;102941;1290;111985;-72
2022/10/30 02:52:08;;;;;;;11.80;5.50;;;;;;;11.88;72.40;99431.08;103058;1297;99902;-71
2022/10/30 02:54:35;;;;;;;12.80;5.10;;;;;;;11.87;72.44;99429.23;103047;1304;106629;-73
2022/10/30 02:57:03;;;;;;;13.70;6.00;;;;;;;11.86;72.36;99429.15;103120;1297;99406;-71
2022/10/30 02:59:31;;;;;;;15.40;5.70;;;;;;;11.83;72.38;99422.58;102952;1301;99343;-71
2022/10/30 03:01:59;;;;;;;14.00;5.60;;;;;;;11.81;72.46;99433.18;103010;1296;112306;-71
2022/10/30 03:04:27;;;;;;;11.60;5.50;;;;;;;11.81;72.48;99439.65;103040;1303;96927;-72
2022/10/30 03:06:56;;;;;;;11.90;5.30;;;;;;;11.79;72.62;99434.24;103051;1298;107563;-71
2022/10/30 03:09:24;;;;;;;14.70;5.80;;;;;;;11.78;72.45;99425.23;103088;1297;99253;-71
2022/10/30 03:11:51;;;;;;;12.70;5.50;;;;;;;11.78;72.53;99416.94;103086;1297;99209;-72
2022/10/30 03:14:19;;;;;;;14.20;5.90;;;;;;;11.78;72.65;99410.69;103094;1296;112019;-70
2022/10/30 03:16:47;;;;;;;13.00;5.30;;;;;;;11.79;72.71;99400.15;103057;1303;99258;-71
2022/10/30 03:19:15;;;;;;;11.50;5.20;;;;;;;11.78;72.72;99398.42;103070;1303;105188;-70
2022/10/30 03:21:42;;;;;;;13.00;5.70;;;;;;;11.78;72.68;99411.42;103082;1307;99343;-70
2022/10/30 03:24:10;;;;;;;12.90;5.40;;;;;;;11.77;72.67;99415.91;103094;1300;99236;-70
2022/10/30 03:26:38;;;;;;;12.90;5.80;;;;;;;11.78;72.76;99421.58;103165;1300;112112;-70
2022/10/30 03:29:06;;;;;;;13.70;5.50;;;;;;;11.77;72.70;99428.70;103162;1300;99306;-69
2022/10/30 03:31:35;;;;;;;12.40;5.50;;;;;;;11.78;72.78;99430.81;103170;1297;106485;-74
2022/10/30 03:34:03;;;;;;;11.60;5.10;;;;;;;11.76;72.73;99427.52;103111;1297;99206;-72
2022/10/30 03:36:31;;;;;;;13.70;5.30;;;;;;;11.76;72.81;99427.33;103188;1303;99293;-72
2022/10/30 03:38:59;;;;;;;13.40;5.30;;;;;;;11.78;72.86;99423.02;103047;1297;112562;-72
2022/10/30 03:41:28;;;;;;;14.20;5.50;;;;;;;11.78;72.90;99424.39;103082;1301;96963;-71
2022/10/30 03:43:56;;;;;;;10.20;5.10;;;;;;;11.78;72.93;99428.30;103033;1293;107157;-72
2022/10/30 03:46:24;;;;;;;12.00;5.70;;;;;;;11.79;72.90;99425.73;103001;1297;99204;-71
2022/10/30 03:48:52;;;;;;;13.90;5.30;;;;;;;11.79;72.87;99420.07;103037;1296;99362;-71
2022/10/30 03:51:19;;;;;;;14.10;5.90;;;;;;;11.79;72.90;99414.59;103021;1303;112633;-72
2022/10/30 03:53:48;;;;;;;14.30;5.10;;;;;;;11.78;72.97;99411.60;103065;1303;97215;-73
2022/10/30 03:56:16;;;;;;;9.80;4.90;;;;;;;11.77;72.93;99414.14;103034;1304;107376;-71
2022/10/30 03:58:44;;;;;;;13.10;5.00;;;;;;;11.78;73.04;99413.58;102913;1306;99223;-71
2022/10/30 04:01:13;;;;;;;12.80;6.30;;;;;;;11.77;73.00;99413.26;103092;1297;99263;-71
2022/10/30 04:03:41;;;;;;;11.70;4.50;;;;;;;11.78;73.00;99407.17;103141;1292;112497;-71
2022/10/30 04:06:08;;;;;;;12.20;5.50;;;;;;;11.79;73.09;99405.68;103093;1296;96572;-71
2022/10/30 04:08:37;;;;;;;10.70;5.10;;;;;;;11.78;73.06;99408.73;103145;1303;106831;-72
2022/10/30 04:11:05;;;;;;;11.90;5.40;;;;;;;11.79;73.07;99412.98;103162;1304;98786;-72
2022/10/30 04:13:32;;;;;;;11.80;5.10;;;;;;;11.79;73.02;99416.32;103179;1296;99342;-71
2022/10/30 04:16:02;;;;;;;13.90;5.00;;;;;;;11.80;73.13;99411.30;103094;1288;112747;-71
2022/10/30 04:18:29;;;;;;;13.30;5.00;;;;;;;11.81;73.21;99403.57;103066;1296;99345;-72
2022/10/30 04:21:00;;;;;;;9.80;4.90;;;;;;;11.81;73.28;99394.30;103042;1303;106021;-72
2022/10/30 04:23:28;;;;;;;12.20;4.60;;;;;;;11.81;73.21;99388.96;103106;1305;99603;-71
2022/10/30 04:25:59;;;;;;;13.00;5.10;;;;;;;11.81;73.21;99389.71;103129;1296;99171;-71
2022/10/30 04:28:28;;;;;;;9.50;5.00;;;;;;;11.81;73.22;99389.31;103119;1296;112525;-70
2022/10/30 04:30:55;;;;;;;10.30;4.70;;;;;;;11.82;73.20;99393.70;103163;1297;96608;-70
2022/10/30 04:33:23;;;;;;;13.00;4.90;;;;;;;11.83;73.32;99393.98;103144;1296;105687;-71
2022/10/30 04:35:51;;;;;;;9.40;4.40;;;;;;;11.84;73.26;99389.44;103128;1296;99226;-71
2022/10/30 04:38:19;;;;;;;13.80;5.40;;;;;;;11.84;73.41;99389.13;103108;1296;99213;-71
2022/10/30 04:40:47;;;;;;;18.30;5.80;;;;;;;11.84;73.37;99388.21;103091;1304;112469;-72
2022/10/30 04:43:15;;;;;;;14.80;5.20;;;;;;;11.85;73.33;99390.63;102970;1290;243111;-72
2022/10/30 04:45:43;;;;;;;11.10;5.20;;;;;;;11.85;73.37;99394.36;103150;1296;107486;-71
2022/10/30 04:48:15;;;;;;;13.40;5.20;;;;;;;11.85;73.49;99400.73;103089;1304;99321;-71
2022/10/30 04:50:44;;;;;;;9.10;5.20;;;;;;;11.87;73.36;99400.12;103093;1290;99224;-72
2022/10/30 04:53:17;;;;;;;12.40;5.40;;;;;;;11.87;73.37;99396.51;103173;1302;111968;-72
2022/10/30 04:55:46;;;;;;;12.10;5.10;;;;;;;11.87;73.41;99389.27;103107;1297;97932;-73
2022/10/30 04:58:14;;;;;;;12.50;5.20;;;;;;;11.87;73.42;99384.30;103097;1290;107462;-71
2022/10/30 05:00:42;;;;;;;9.40;4.90;;;;;;;11.88;73.53;99392.59;103146;1296;100352;-70
2022/10/30 05:03:19;;;;;;;11.80;5.30;;;;;;;11.90;73.48;99398.45;103060;1296;99254;-71
2022/10/30 05:06:02;;;;;;;12.50;5.20;;;;;;;11.93;73.58;99400.41;103019;1298;112603;-70
2022/10/30 05:08:31;;;;;;;13.60;5.60;;;;;;;11.94;73.52;99396.02;102945;1307;99262;-72
2022/10/30 05:11:04;;;;;;;12.00;4.90;;;;;;;11.94;73.43;99391.23;103070;1296;107445;-70
2022/10/30 05:13:32;;;;;;;12.80;5.10;;;;;;;11.95;73.50;99389.56;102898;1299;99343;-71
2022/10/30 05:15:59;;;;;;;13.20;5.20;;;;;;;11.95;73.61;99392.02;103169;1297;99230;-71
2022/10/30 05:18:28;;;;;;;11.90;5.00;;;;;;;11.97;73.60;99394.05;103131;1298;112404;-72
2022/10/30 05:20:55;;;;;;;16.40;5.50;;;;;;;11.97;73.57;99393.02;103146;1296;99090;-71
2022/10/30 05:23:23;;;;;;;13.50;5.00;;;;;;;11.97;73.55;99392.27;103106;1288;107257;-72
2022/10/30 05:25:51;;;;;;;10.60;5.20;;;;;;;11.96;73.60;99398.56;103115;1297;99250;-71
2022/10/30 05:28:19;;;;;;;10.10;4.70;;;;;;;11.98;73.63;99403.27;103085;1297;99330;-71
2022/10/30 05:30:46;;;;;;;11.50;4.80;;;;;;;11.99;73.68;99411.52;103076;1304;112365;-71
2022/10/30 05:33:16;;;;;;;9.40;4.40;;;;;;;12.00;73.65;99408.06;103135;1300;99326;-71
2022/10/30 05:35:46;;;;;;;9.40;4.60;;;;;;;12.02;73.71;99408.28;103119;1297;109401;-71
2022/10/30 05:38:13;;;;;;;12.60;5.00;;;;;;;12.03;73.76;99408.70;103123;1297;99291;-70
2022/10/30 05:40:45;;;;;;;10.80;5.10;;;;;;;12.04;73.64;99401.69;103102;1303;99252;-71
2022/10/30 05:43:13;;;;;;;13.40;5.50;;;;;;;12.06;73.69;99406.53;103040;1298;112383;-72
2022/10/30 05:45:41;;;;;;;12.40;4.90;;;;;;;12.07;73.74;99406.52;102998;1299;99325;-72
2022/10/30 05:48:09;;;;;;;13.60;4.60;;;;;;;12.08;73.65;99408.73;103064;1300;107510;-71
2022/10/30 05:50:37;;;;;;;10.60;5.10;;;;;;;12.09;73.70;99402.63;103059;1296;96605;-71
2022/10/30 05:53:05;;;;;;;9.80;4.60;;;;;;;12.10;73.69;99404.33;103100;1303;99249;-70
2022/10/30 05:55:33;;;;;;;12.70;4.90;;;;;;;12.11;73.69;99400.91;103083;1297;112229;-70
2022/10/30 05:58:05;;;;;;;13.10;5.40;;;;;;;12.12;73.70;99402.23;103093;1304;99185;-71
2022/10/30 06:00:36;;;;;;;12.10;5.50;;;;;;;12.13;73.66;99406.80;103102;1297;107164;-71
2022/10/30 06:03:07;;;;;;;11.00;4.80;;;;;;;12.12;73.75;99403.14;103117;1296;99212;-69
2022/10/30 06:05:36;;;;;;;10.60;4.70;;;;;;;12.12;73.74;99403.34;103171;1288;99315;-70
2022/10/30 06:08:07;;;;;;;10.20;4.40;;;;;;;12.12;73.83;99402.42;103113;1297;112535;-70
2022/10/30 06:10:36;;;;;;;11.90;4.90;;;;;;;12.11;73.77;99395.87;103145;1303;99252;-71
2022/10/30 06:13:06;;;;;;;13.10;4.60;;;;;;;12.12;73.82;99400.24;103094;1296;107205;-70
2022/10/30 06:15:34;;;;;;;13.30;4.70;;;;;;;12.14;73.78;99405.80;103111;1296;99939;-69
2022/10/30 06:18:03;;;;;;;12.00;4.90;;;;;;;12.15;73.88;99412.87;103093;1297;97238;-72
2022/10/30 06:20:31;;;;;;;11.70;4.90;;;;;;;12.17;73.85;99421.07;102972;1303;113023;-70
2022/10/30 06:23:03;;;;;;;11.30;4.80;;;;;;;12.18;73.92;99420.08;103133;1297;99782;-70
2022/10/30 06:25:34;;;;;;;10.90;4.60;;;;;;;12.19;73.79;99422.31;103170;1298;107524;-71
2022/10/30 06:28:10;;;;;;;8.80;4.40;;;;;;;12.17;73.82;99423.38;103147;1311;99304;-70
2022/10/30 06:30:38;;;;;;;10.60;4.70;;;;;;;12.16;73.92;99427.88;103114;1305;99356;-70
2022/10/30 06:33:09;;;;;;;13.80;5.60;;;;;;;12.16;73.86;99420.41;103092;1297;112446;-71
2022/10/30 06:35:37;;;;;;;15.90;5.70;;;;;;;12.16;73.97;99413.70;103081;1298;99244;-72
2022/10/30 06:38:05;;;;;;;12.10;4.70;;;;;;;12.16;74.02;99424.16;103103;1296;107557;-70
2022/10/30 06:40:32;;;;;;;9.90;4.50;;;;;;;12.18;74.00;99423.84;103084;1297;97742;-73
2022/10/30 06:43:00;;;;;;;11.50;5.10;;;;;;;12.20;73.97;99435.61;103118;1296;96450;-71
2022/10/30 06:45:29;;;;;;;11.40;4.80;;;;;;;12.20;74.00;99441.42;103050;1296;112143;-71
2022/10/30 06:47:58;;;;;;;11.30;5.10;;;;;;;12.22;74.00;99446.14;103126;1304;99237;-70
2022/10/30 06:50:28;;;;;;;11.30;5.20;;;;;;;12.22;73.94;99445.05;103011;1299;107630;-71
2022/10/30 06:52:56;;;;;;;13.30;4.90;;;;;;;12.22;74.00;99452.67;103055;1304;99266;-70
2022/10/30 06:55:24;;;;;;;10.90;5.00;;;;;;;12.23;74.01;99463.49;103171;1296;99907;-71
2022/10/30 06:57:54;;;;;;;10.00;4.80;;;;;;;12.24;74.13;99473.88;102976;1299;112473;-72
2022/10/30 07:00:23;;;;;;;13.60;5.10;;;;;;;12.26;74.08;99478.17;103145;1302;99229;-70
2022/10/30 07:02:56;;;;;;;14.70;5.90;;;;;;;12.25;74.17;99461.88;103109;1297;107261;-69
2022/10/30 07:05:26;;;;;;;9.10;4.30;;;;;;;12.25;74.04;99465.48;103005;1297;99228;-69
2022/10/30 07:07:56;;;;;;;11.30;5.10;;;;;;;12.24;74.06;99470.34;103072;1299;99303;-71
2022/10/30 07:10:24;;;;;;;11.20;4.70;;;;;;;12.24;74.13;99470.73;103160;1296;112660;-71
2022/10/30 07:12:55;;;;;;;11.20;4.80;;;;;;;12.23;74.15;99467.20;103077;1304;98948;-72
2022/10/30 07:15:25;;;;;;;11.20;4.90;;;;;;;12.21;74.07;99465.39;103077;1304;107486;-71
2022/10/30 07:17:58;;;;;;;18.40;6.20;;;;;;;12.21;74.14;99423.81;102899;1300;99322;-72
2022/10/30 07:20:28;;;;;;;11.50;5.10;;;;;;;12.13;74.04;99419.20;103124;1304;100385;-70
2022/10/30 07:22:56;;;;;;;13.70;5.30;;;;;;;12.09;74.20;99424.52;103095;1306;112358;-71
2022/10/30 07:25:24;;;;;;;11.60;5.20;;;;;;;12.10;74.31;99425.34;103095;1305;99393;-71
2022/10/30 07:27:55;;;;;;;14.50;5.30;;;;;;;12.10;74.28;99431.66;103136;1296;108122;-70
2022/10/30 07:30:26;;;;;;;16.00;5.80;;;;;;;12.12;74.33;99430.14;102936;1307;99304;-70
2022/10/30 07:33:00;;;;;;;14.50;6.20;;;;;;;12.14;74.25;99417.23;103164;1302;96669;-72
2022/10/30 07:35:32;;;;;;;12.30;6.00;;;;;;;12.17;74.36;99414.11;103145;1304;112496;-71
2022/10/30 07:38:11;;;;;;;12.00;5.80;;;;;;;12.24;74.40;99415.19;103151;1303;99266;-71
2022/10/30 07:40:39;;;;;;;15.60;6.20;;;;;;;12.34;74.45;99427.48;103095;1296;107715;-70
2022/10/30 07:43:12;;;;;;;15.50;6.10;;;;;;;12.40;74.58;99427.60;102963;1299;99335;-71
2022/10/30 07:45:44;;;;;;;16.70;6.10;;;;;;;12.44;74.65;99433.09;103092;1299;99251;-71
2022/10/30 07:48:12;;;;;;;16.70;6.70;;;;;;;12.47;74.62;99434.52;103116;1303;112493;-71
2022/10/30 07:50:41;;;;;;;13.50;5.40;;;;;;;12.48;74.52;99434.06;103124;1297;99351;-71
2022/10/30 07:53:09;;;;;;;15.30;6.30;;;;;;;12.46;74.51;99426.77;103147;1300;107542;-71
2022/10/30 07:55:37;;;;;;;17.10;6.60;;;;;;;12.44;74.50;99409.27;103158;1297;99234;-72
2022/10/30 07:58:05;;;;;;;16.90;6.10;;;;;;;12.41;74.56;99410.44;103147;1298;96920;-75
2022/10/30 08:00:33;;;;;;;20.50;6.80;;;;;;;12.40;74.58;99408.02;103125;1296;112440;-71
2022/10/30 08:03:01;;;;;;;18.90;7.20;;;;;;;12.39;74.64;99438.32;102998;1296;99230;-72
2022/10/30 08:05:30;;;;;;;18.80;6.30;;;;;;;12.41;74.63;99463.96;103027;1297;107145;-71
2022/10/30 08:07:58;;;;;;;16.80;6.10;;;;;;;12.43;74.65;99463.40;103065;1296;99238;-68
2022/10/30 08:10:28;;;;;;;22.00;7.20;;;;;;;12.44;74.51;99433.88;103079;1305;99105;-73
2022/10/30 08:12:56;;;;;;;15.70;6.20;;;;;;;12.43;74.67;99438.19;103115;1296;112433;-68
2022/10/30 08:15:23;;;;;;;15.90;6.40;;;;;;;12.46;74.73;99448.25;103033;1297;99231;-71
2022/10/30 08:17:52;;;;;;;18.20;6.10;;;;;;;12.49;74.77;99438.42;102971;1299;107242;-70
2022/10/30 08:20:23;;;;;;;18.60;6.30;;;;;;;12.52;74.86;99428.97;103046;1303;99311;-71
2022/10/30 08:22:55;;;;;;;15.40;5.50;;;;;;;12.56;74.79;99432.23;103070;1299;99233;-69
2022/10/30 08:25:29;;;;;;;20.00;7.10;;;;;;;12.60;74.79;99431.39;102991;1304;113507;-70
2022/10/30 08:28:03;;;;;;;14.30;6.00;;;;;;;12.65;74.77;99431.23;103041;1304;97263;-69
2022/10/30 08:30:35;;;;;;;14.50;5.90;;;;;;;12.67;74.66;99423.74;103083;1305;107443;-70
2022/10/30 08:33:12;;;;;;;17.70;7.00;;;;;;;12.67;74.63;99428.40;103081;1297;97237;-70
2022/10/30 08:35:50;;;;;;;14.80;5.80;;;;;;;12.67;74.81;99431.80;103072;1296;99972;-70
2022/10/30 08:38:19;;;;;;;15.80;6.50;;;;;;;12.69;74.84;99433.73;103081;1304;113079;-69
2022/10/30 08:40:47;;;;;;;15.10;5.90;;;;;;;12.72;74.85;99446.20;103059;1304;99357;-70
2022/10/30 08:43:16;;;;;;;14.20;6.00;;;;;;;12.74;74.81;99442.11;102969;1300;107541;-69
2022/10/30 08:45:43;;;;;;;18.30;7.30;;;;;;;12.76;74.88;99443.89;103121;1303;96959;-71
2022/10/30 08:48:14;;;;;;;15.70;7.10;;;;;;;12.80;74.90;99451.81;103103;1296;99230;-70
2022/10/30 08:50:44;;;;;;;14.40;6.40;;;;;;;12.84;74.95;99477.45;103057;1307;112724;-72
2022/10/30 08:53:14;;;;;;;17.70;6.40;;;;;;;12.89;74.98;99485.14;103056;1304;99376;-69
2022/10/30 08:55:42;;;;;;;14.00;5.90;;;;;;;12.92;74.90;99473.84;103143;1299;107380;-67
2022/10/30 08:58:11;;;;;;;16.60;7.10;;;;;;;12.95;74.90;99479.45;103101;1296;99927;-68
2022/10/30 09:00:39;;;;;;;14.10;6.40;;;;;;;12.99;74.98;99480.64;103061;1299;99250;-70
2022/10/30 09:03:08;;;;;;;17.70;6.80;;;;;;;13.03;75.03;99475.75;103144;1304;112468;-69
2022/10/30 09:05:37;;;;;;;16.10;5.90;;;;;;;13.05;74.88;99469.87;103086;1297;96547;-69
2022/10/30 09:08:06;;;;;;;14.10;6.00;;;;;;;13.06;74.95;99458.52;103024;1297;108051;-70
2022/10/30 09:10:35;;;;;;;14.50;5.50;;;;;;;13.10;74.81;99455.55;102978;1303;99338;-69
2022/10/30 09:13:03;;;;;;;13.80;6.10;;;;;;;13.15;74.97;99463.36;102976;1303;97670;-69
2022/10/30 09:15:32;;;;;;;16.10;5.60;;;;;;;13.22;75.01;99463.23;102941;1304;113553;-70
2022/10/30 09:18:03;;;;;;;14.70;5.60;;;;;;;13.29;75.02;99463.42;102811;1307;99317;-70
2022/10/30 09:20:31;;;;;;;13.70;5.90;;;;;;;13.34;74.99;99449.64;103058;1297;108182;-68
2022/10/30 09:22:59;;;;;;;14.10;5.80;;;;;;;13.36;74.92;99439.31;102997;1295;99255;-70
2022/10/30 09:25:29;;;;;;;14.00;6.10;;;;;;;13.38;74.92;99425.77;103088;1299;97843;-71
2022/10/30 09:27:57;;;;;;;16.00;6.60;;;;;;;13.42;74.93;99413.44;103100;1299;111138;-70
2022/10/30 09:30:25;;;;;;;18.90;7.70;;;;;;;13.50;74.96;99409.41;103021;1298;97647;-69
2022/10/30 09:32:55;;;;;;;20.30;7.50;;;;;;;13.57;75.08;99416.69;102974;1304;107702;-69
2022/10/30 09:35:25;;;;;;;19.90;8.30;;;;;;;13.61;75.14;99420.82;102981;1297;96466;-69
2022/10/30 09:37:54;;;;;;;18.30;7.40;;;;;;;13.66;75.00;99422.89;103040;1307;99301;-69
2022/10/30 09:40:47;;;;;;;16.60;7.30;;;;;;;13.69;75.02;99416.79;103037;1304;112922;-68
2022/10/30 09:43:48;;;;;;;14.30;5.90;;;;;;;13.71;74.89;99410.23;102995;1302;99245;-68
2022/10/30 09:46:30;;;;;;;13.50;6.20;;;;;;;13.76;74.99;99409.48;102964;1304;108390;-68
2022/10/30 09:49:26;;;;;;;13.30;6.20;;;;;;;13.79;75.05;99411.71;103057;1297;99237;-68
2022/10/30 09:52:21;;;;;;;14.80;6.70;;;;;;;13.86;75.12;99419.01;103112;1297;99323;-70
2022/10/30 09:54:58;;;;;;;17.00;6.50;;;;;;;13.92;75.10;99407.32;103036;1299;112098;-69
2022/10/30 09:57:57;;;;;;;13.80;6.50;;;;;;;13.96;75.08;99409.48;103097;1300;99288;-70
2022/10/30 10:00:38;;;;;;;16.60;6.40;;;;;;;14.03;75.08;99417.86;102901;1300;107998;-71
2022/10/30 10:03:11;;;;;;;15.10;6.80;;;;;;;14.10;75.02;99417.10;102955;1303;99225;-69
2022/10/30 10:05:54;;;;;;;16.10;6.80;;;;;;;14.16;75.08;99413.39;103075;1305;99670;-68
2022/10/30 10:08:37;;;;;;;13.90;6.10;;;;;;;14.21;74.95;99403.75;102947;1297;113170;-69
2022/10/30 10:11:21;;;;;;;21.10;6.60;;;;;;;14.26;75.08;99400.98;102947;1297;99330;-69
2022/10/30 10:14:00;;;;;;;19.10;7.10;;;;;;;14.32;75.14;99399.39;102942;1307;107743;-70
2022/10/30 10:16:35;;;;;;;15.30;6.20;;;;;;;14.36;75.11;99399.10;102854;1304;97650;-70
2022/10/30 10:19:08;;;;;;;13.60;6.20;;;;;;;14.40;75.04;99401.78;102986;1303;96547;-69
2022/10/30 10:21:50;;;;;;;14.50;6.00;;;;;;;14.44;75.05;99400.39;102956;1305;113101;-68
2022/10/30 10:24:25;;;;;;;18.20;6.40;;;;;;;14.50;75.09;99400.27;102924;1300;99374;-70
2022/10/30 10:27:32;;;;;;;25.30;15.90;;;;;;;14.57;75.03;99396.98;102934;1306;107941;-74
2022/10/30 10:30:09;;;;;;;15.90;7.00;;;;;;;14.66;75.07;99401.02;103028;1298;99266;-70
2022/10/30 10:32:56;;;;;;;15.40;7.00;;;;;;;14.76;75.01;99399.04;103127;1305;99903;-69
2022/10/30 10:36:03;;;;;;;16.40;5.80;;;;;;;14.86;75.06;99399.75;103101;1303;112257;-70
2022/10/30 10:38:58;;;;;;;17.50;8.30;;;;;;;14.95;74.99;99405.09;103045;1305;99579;-70
2022/10/30 10:41:49;;;;;;;15.00;6.30;;;;;;;15.06;74.88;99407.98;103048;1300;110824;-70
2022/10/30 10:44:57;;;;;;;15.80;6.80;;;;;;;15.17;75.02;99404.29;102969;1299;96496;-70
2022/10/30 10:47:40;;;;;;;15.80;6.50;;;;;;;15.32;74.98;99405.12;103009;1306;98967;-69
2022/10/30 10:50:24;;;;;;;15.60;6.60;;;;;;;15.43;74.84;99406.65;102893;1306;112933;-72
2022/10/30 10:53:04;;;;;;;15.80;6.70;;;;;;;15.54;75.01;99402.11;103012;1286;99257;-68
2022/10/30 10:55:37;;;;;;;14.00;6.20;;;;;;;15.67;74.96;99404.27;102987;1297;107454;-69
2022/10/30 10:58:35;;;;;;;19.20;6.50;;;;;;;15.77;74.83;99401.87;103068;1304;99307;-68
2022/10/30 11:01:11;;;;;;;17.10;7.40;;;;;;;15.86;74.89;99403.66;103016;1304;99802;-69
2022/10/30 11:04:10;;;;;;;20.60;7.60;;;;;;;15.89;74.74;99411.45;103058;1298;112493;-70
2022/10/30 11:06:43;;;;;;;97.70;62.50;;;;;;;15.89;74.66;99412.16;103038;1306;99355;-69
2022/10/30 11:09:20;;;;;;;27.80;14.40;;;;;;;15.87;74.54;99407.86;103131;1297;107430;-70
2022/10/30 11:11:53;;;;;;;26.20;11.10;;;;;;;15.87;74.63;99407.70;102971;1304;99142;-69
2022/10/30 11:14:26;;;;;;;22.50;10.40;;;;;;;15.91;74.68;99403.36;103015;1297;99237;-70
2022/10/30 11:17:19;;;;;;;16.60;8.00;;;;;;;16.01;74.61;99403.43;102977;1302;113016;-68
2022/10/30 11:19:56;;;;;;;17.10;8.00;;;;;;;16.07;74.68;99398.54;102877;1305;99646;-70
2022/10/30 11:22:33;;;;;;;21.20;8.40;;;;;;;16.11;74.64;99393.40;102974;1302;106190;-69
2022/10/30 11:25:23;;;;;;;18.10;7.50;;;;;;;16.14;74.62;99383.85;103098;1303;100001;-69
2022/10/30 11:28:03;;;;;;;21.40;8.50;;;;;;;16.15;74.53;99380.82;103168;1296;99222;-71
2022/10/30 11:30:32;;;;;;;18.00;7.80;;;;;;;16.15;74.50;99379.77;103066;1297;110788;-68
2022/10/30 11:33:22;;;;;;;21.60;8.60;;;;;;;16.13;74.56;99382.48;103085;1299;98068;-69
2022/10/30 11:35:51;;;;;;;17.60;7.50;;;;;;;16.13;74.52;99381.89;103044;1296;107990;-69
2022/10/30 11:38:20;;;;;;;18.60;8.30;;;;;;;16.16;74.42;99385.78;103051;1307;99226;-74
2022/10/30 11:40:51;;;;;;;23.80;8.40;;;;;;;16.17;74.47;99380.89;103172;1302;99584;-73